createdAt,value
2023-06-11T00:01:25.271Z,48.23
2023-06-11T00:03:55.160Z,48.31
2023-06-11T00:06:24.187Z,49.32
2023-06-11T00:08:54.921Z,49.34
2023-06-11T00:11:23.220Z,49.53
2023-06-11T00:13:51.245Z,49.50
2023-06-11T00:16:18.412Z,49.97
2023-06-11T00:18:46.356Z,49.94
2023-06-11T00:21:15.000Z,50.37
2023-06-11T00:23:41.760Z,50.54
2023-06-11T00:26:09.281Z,50.75
2023-06-11T00:28:36.688Z,51.02
2023-06-11T00:31:06.871Z,51.11
2023-06-11T00:33:33.794Z,51.18
2023-06-11T00:36:00.532Z,51.42
2023-06-11T00:38:27.307Z,51.51
2023-06-11T00:40:54.133Z,51.85
2023-06-11T00:43:22.621Z,51.95
2023-06-11T00:45:52.796Z,52.45
2023-06-11T00:48:22.858Z,52.53
2023-06-11T00:50:51.513Z,51.98
2023-06-11T00:53:19.954Z,52.42
2023-06-11T00:55:48.265Z,53.16
2023-06-11T00:58:16.608Z,53.41
2023-06-11T01:00:47.100Z,53.42
2023-06-11T01:03:22.446Z,53.97
2023-06-11T01:05:54.186Z,54.14
2023-06-11T01:08:23.889Z,54.19
2023-06-11T01:10:53.280Z,54.35
2023-06-11T01:13:21.239Z,54.87
2023-06-11T01:15:48.511Z,55.28
2023-06-11T01:18:20.553Z,55.54
2023-06-11T01:21:15.162Z,55.62
2023-06-11T01:24:04.906Z,55.39
2023-06-11T01:26:53.759Z,55.93
2023-06-11T01:29:22.515Z,57.23
2023-06-11T01:31:51.859Z,58.21
2023-06-11T01:34:19.197Z,58.81
2023-06-11T01:36:45.962Z,58.76
2023-06-11T01:39:13.567Z,59.48
2023-06-11T01:41:46.337Z,59.40
2023-06-11T01:44:17.338Z,58.91
2023-06-11T01:46:44.182Z,59.54
2023-06-11T01:49:11.073Z,60.49
2023-06-11T01:51:38.767Z,60.89
2023-06-11T01:54:06.178Z,61.18
2023-06-11T01:56:33.948Z,60.60
2023-06-11T01:59:01.314Z,60.71
2023-06-11T02:01:30.156Z,60.83
2023-06-11T02:03:57.440Z,62.01
2023-06-11T02:06:24.526Z,62.74
2023-06-11T02:08:51.245Z,62.55
2023-06-11T02:11:17.909Z,62.63
2023-06-11T02:13:44.782Z,62.70
2023-06-11T02:16:11.663Z,63.35
2023-06-11T02:18:39.268Z,63.14
2023-06-11T02:21:06.324Z,63.13
2023-06-11T02:23:33.210Z,63.86
2023-06-11T02:25:59.884Z,63.55
2023-06-11T02:28:27.301Z,63.34
2023-06-11T02:30:53.957Z,63.67
2023-06-11T02:33:20.985Z,63.72
2023-06-11T02:35:47.811Z,64.36
2023-06-11T02:38:14.587Z,64.22
2023-06-11T02:40:41.247Z,64.60
2023-06-11T02:43:07.967Z,64.83
2023-06-11T02:45:36.004Z,65.30
2023-06-11T02:48:02.929Z,65.46
2023-06-11T02:50:29.791Z,66.13
2023-06-11T02:52:57.612Z,66.41
2023-06-11T02:55:24.460Z,66.10
2023-06-11T02:57:51.255Z,66.28
2023-06-11T03:00:18.052Z,66.67
2023-06-11T03:02:45.279Z,67.63
2023-06-11T03:05:15.183Z,67.04
2023-06-11T03:07:42.140Z,67.05
2023-06-11T03:10:10.274Z,67.33
2023-06-11T03:12:37.119Z,67.05
2023-06-11T03:15:04.092Z,67.32
2023-06-11T03:17:31.084Z,68.09
2023-06-11T03:19:57.783Z,68.49
2023-06-11T03:22:24.599Z,68.61
2023-06-11T03:24:51.331Z,68.69
2023-06-11T03:27:38.789Z,69.15
2023-06-11T03:30:07.037Z,69.25
2023-06-11T03:32:36.361Z,70.12
2023-06-11T03:35:03.101Z,70.63
2023-06-11T03:37:31.423Z,70.16
2023-06-11T03:40:00.245Z,70.88
2023-06-11T03:42:29.559Z,71.19
2023-06-11T03:44:56.602Z,70.93
2023-06-11T03:47:25.483Z,70.79
2023-06-11T03:49:52.770Z,70.78
2023-06-11T03:52:20.386Z,70.18
2023-06-11T03:54:47.272Z,70.11
2023-06-11T03:57:14.510Z,70.35
2023-06-11T03:59:41.504Z,70.88
2023-06-11T04:02:08.344Z,70.38
2023-06-11T04:04:35.294Z,70.92
2023-06-11T04:07:02.415Z,70.97
2023-06-11T04:09:29.186Z,70.94
2023-06-11T04:11:56.187Z,70.94
2023-06-11T04:14:22.995Z,70.53
2023-06-11T04:16:50.566Z,70.99
2023-06-11T04:19:18.511Z,71.51
2023-06-11T04:21:46.870Z,71.34
2023-06-11T04:24:14.211Z,72.44
2023-06-11T04:26:42.153Z,72.58
2023-06-11T04:29:10.138Z,72.95
2023-06-11T04:31:37.079Z,72.46
2023-06-11T04:34:07.987Z,72.65
2023-06-11T04:36:39.731Z,72.55
2023-06-11T04:39:09.055Z,71.94
2023-06-11T04:41:37.886Z,72.13
2023-06-11T04:44:06.463Z,71.68
2023-06-11T04:46:36.103Z,71.91
2023-06-11T04:49:08.233Z,71.53
2023-06-11T04:51:35.273Z,71.42
2023-06-11T04:54:08.801Z,71.41
2023-06-11T04:56:40.285Z,71.34
2023-06-11T04:59:09.013Z,71.27
2023-06-11T05:01:38.545Z,70.90
2023-06-11T05:04:06.668Z,70.53
2023-06-11T05:06:35.046Z,69.70
2023-06-11T05:09:04.478Z,69.52
2023-06-11T05:11:31.573Z,69.04
2023-06-11T05:13:58.315Z,68.34
2023-06-11T05:16:27.415Z,67.81
2023-06-11T05:18:55.014Z,67.05
2023-06-11T05:21:22.096Z,67.02
2023-06-11T05:23:49.932Z,66.66
2023-06-11T05:26:20.101Z,66.10
2023-06-11T05:28:48.142Z,66.07
2023-06-11T05:31:15.471Z,66.02
2023-06-11T05:33:46.063Z,65.36
2023-06-11T05:36:13.644Z,65.13
2023-06-11T05:38:40.847Z,64.82
2023-06-11T05:41:08.043Z,64.63
2023-06-11T05:43:35.092Z,64.61
2023-06-11T05:46:02.395Z,64.35
2023-06-11T05:48:30.294Z,63.55
2023-06-11T05:50:57.337Z,63.51
2023-06-11T05:53:24.784Z,62.78
2023-06-11T05:55:54.541Z,62.57
2023-06-11T05:58:23.399Z,62.71
2023-06-11T06:00:51.277Z,61.22
2023-06-11T06:03:18.335Z,61.24
2023-06-11T06:05:45.296Z,60.95
2023-06-11T06:08:12.632Z,60.46
2023-06-11T06:10:39.706Z,59.97
2023-06-11T06:13:06.510Z,59.18
2023-06-11T06:15:33.411Z,59.40
2023-06-11T06:18:00.989Z,58.98
2023-06-11T06:20:36.861Z,58.61
2023-06-11T06:23:03.755Z,58.34
2023-06-11T06:25:32.914Z,57.98
2023-06-11T06:27:59.944Z,57.73
2023-06-11T06:30:27.006Z,56.97
2023-06-11T06:32:55.075Z,56.17
2023-06-11T06:35:24.324Z,56.11
2023-06-11T06:37:51.096Z,55.10
2023-06-11T06:40:18.719Z,55.38
2023-06-11T06:42:45.449Z,55.13
2023-06-11T06:45:16.869Z,54.77
2023-06-11T06:47:43.858Z,53.79
2023-06-11T06:50:11.646Z,53.87
2023-06-11T06:52:38.814Z,53.09
2023-06-11T06:55:06.269Z,52.67
2023-06-11T06:57:33.345Z,53.40
2023-06-11T07:00:01.539Z,52.92
2023-06-11T07:02:28.995Z,52.13
2023-06-11T07:04:56.180Z,51.93
2023-06-11T07:07:25.653Z,51.90
2023-06-11T07:09:53.250Z,50.78
2023-06-11T07:12:21.568Z,50.59
2023-06-11T07:14:49.335Z,50.13
2023-06-11T07:17:16.728Z,50.14
2023-06-11T07:19:43.690Z,50.49
2023-06-11T07:22:10.367Z,50.02
2023-06-11T07:24:39.032Z,49.66
2023-06-11T07:27:07.092Z,48.89
2023-06-11T07:29:34.140Z,48.94
2023-06-11T07:32:01.209Z,49.12
2023-06-11T07:34:28.168Z,47.47
2023-06-11T07:36:55.096Z,47.22
2023-06-11T07:39:21.950Z,47.64
2023-06-11T07:41:48.646Z,47.40
2023-06-11T07:44:16.990Z,47.20
2023-06-11T07:46:45.752Z,46.54
2023-06-11T07:49:12.636Z,46.10
2023-06-11T07:51:39.586Z,45.71
2023-06-11T07:54:09.411Z,45.81
2023-06-11T07:56:36.232Z,45.65
2023-06-11T07:59:02.925Z,45.02
2023-06-11T08:01:30.110Z,45.49
2023-06-11T08:03:56.935Z,45.00
2023-06-11T08:06:23.758Z,44.82
2023-06-11T08:08:51.789Z,45.00
2023-06-11T08:11:18.565Z,44.08
2023-06-11T08:13:45.378Z,43.56
2023-06-11T08:16:12.223Z,43.23
2023-06-11T08:18:38.960Z,42.97
2023-06-11T08:21:06.727Z,43.00
2023-06-11T08:23:37.163Z,41.93
2023-06-11T08:26:04.114Z,42.77
2023-06-11T08:28:31.345Z,42.80
2023-06-11T08:30:58.508Z,42.00
2023-06-11T08:33:25.551Z,41.36
2023-06-11T08:35:52.429Z,40.89
2023-06-11T08:38:19.157Z,41.14
2023-06-11T08:40:46.383Z,40.96
2023-06-11T08:43:13.510Z,40.89
2023-06-11T08:45:40.448Z,40.15
2023-06-11T08:48:10.029Z,40.29
2023-06-11T08:50:37.331Z,40.29
2023-06-11T08:53:06.076Z,39.81
2023-06-11T08:55:33.176Z,39.28
2023-06-11T08:57:59.992Z,39.78
2023-06-11T09:00:26.945Z,39.68
2023-06-11T09:02:54.105Z,38.80
2023-06-11T09:05:21.052Z,39.05
2023-06-11T09:07:52.339Z,38.46
2023-06-11T09:10:20.193Z,38.28
2023-06-11T09:12:47.708Z,38.31
2023-06-11T09:15:14.685Z,37.79
2023-06-11T09:17:44.643Z,37.43
2023-06-11T09:20:13.954Z,37.56
2023-06-11T09:22:43.091Z,37.62
2023-06-11T09:25:18.529Z,37.08
2023-06-11T09:27:47.891Z,36.49
2023-06-11T09:30:18.520Z,36.64
2023-06-11T09:32:50.604Z,36.38
2023-06-11T09:35:21.312Z,36.29
2023-06-11T09:37:53.529Z,35.68
2023-06-11T09:40:24.318Z,35.80
2023-06-11T09:42:51.790Z,36.45
2023-06-11T09:45:20.848Z,36.14
2023-06-11T09:47:48.967Z,36.29
2023-06-11T09:50:18.012Z,35.86
2023-06-11T09:52:46.402Z,35.72
2023-06-11T09:55:14.265Z,36.24
2023-06-11T09:57:42.048Z,35.27
2023-06-11T10:00:14.054Z,35.49
2023-06-11T10:02:43.050Z,34.86
2023-06-11T10:05:11.449Z,35.19
2023-06-11T10:07:48.349Z,34.36
2023-06-11T10:10:23.277Z,34.46
2023-06-11T10:12:53.961Z,34.30
2023-06-11T10:15:25.245Z,34.09
2023-06-11T10:17:55.695Z,33.37
2023-06-11T10:20:29.339Z,33.50
2023-06-11T10:23:10.514Z,33.31
2023-06-11T10:25:39.704Z,32.71
2023-06-11T10:28:07.226Z,32.02
2023-06-11T10:30:34.222Z,32.12
2023-06-11T10:33:01.573Z,32.33
2023-06-11T10:35:33.637Z,32.12
2023-06-11T10:38:16.288Z,31.99
2023-06-11T10:40:43.122Z,32.69
2023-06-11T10:43:18.267Z,31.50
2023-06-11T10:45:47.751Z,32.05
2023-06-11T10:48:27.789Z,31.96
2023-06-11T10:51:00.818Z,32.17
2023-06-11T10:53:37.054Z,32.24
2023-06-11T10:56:03.937Z,31.80
2023-06-11T10:58:30.859Z,32.36
2023-06-11T11:00:57.721Z,32.02
2023-06-11T11:03:25.784Z,31.74
2023-06-11T11:05:53.526Z,31.67
2023-06-11T11:08:23.931Z,31.79
2023-06-11T11:11:01.037Z,31.44
2023-06-11T11:13:29.949Z,30.62
2023-06-11T11:15:57.342Z,30.39
2023-06-11T11:18:24.359Z,31.01
2023-06-11T11:20:54.751Z,30.77
2023-06-11T11:23:21.650Z,30.43
2023-06-11T11:25:52.270Z,30.31
2023-06-11T11:28:19.003Z,29.96
2023-06-11T11:30:45.653Z,30.08
2023-06-11T11:33:12.715Z,29.97
2023-06-11T11:35:46.803Z,29.94
2023-06-11T11:38:13.585Z,29.88
2023-06-11T11:40:40.464Z,29.53
2023-06-11T11:43:14.125Z,29.62
2023-06-11T11:45:49.637Z,29.45
2023-06-11T11:48:17.559Z,29.51
2023-06-11T11:50:50.543Z,29.54
2023-06-11T11:53:19.898Z,29.27
2023-06-11T11:58:17.840Z,29.02
2023-06-11T12:01:06.055Z,28.98
2023-06-11T12:03:33.114Z,28.60
2023-06-11T12:06:06.122Z,29.03
2023-06-11T12:08:34.759Z,28.45
2023-06-11T12:11:04.992Z,28.30
2023-06-11T12:13:31.761Z,28.12
2023-06-11T12:16:01.952Z,27.45
2023-06-11T12:18:30.817Z,27.80
2023-06-11T12:20:57.706Z,27.69
2023-06-11T12:23:25.301Z,27.93
2023-06-11T12:25:52.072Z,27.88
2023-06-11T12:28:19.361Z,28.52
2023-06-11T12:30:47.128Z,28.11
2023-06-11T12:33:14.220Z,27.68
2023-06-11T12:35:41.287Z,27.73
2023-06-11T12:38:08.176Z,27.39
2023-06-11T12:40:34.951Z,27.37
2023-06-11T12:43:01.958Z,27.62
2023-06-11T12:45:31.631Z,27.72
2023-06-11T12:47:58.709Z,27.13
2023-06-11T12:50:27.525Z,26.79
2023-06-11T12:52:55.066Z,26.49
2023-06-11T12:55:22.058Z,27.53
2023-06-11T12:57:48.860Z,26.74
2023-06-11T13:00:16.144Z,26.17
2023-06-11T13:02:43.308Z,26.54
2023-06-11T13:05:10.166Z,26.25
2023-06-11T13:07:37.076Z,26.46
2023-06-11T13:10:05.029Z,27.36
2023-06-11T13:12:33.092Z,27.39
2023-06-11T13:15:00.199Z,26.69
2023-06-11T13:17:27.143Z,26.74
2023-06-11T13:19:56.989Z,27.67
2023-06-11T13:22:24.116Z,28.74
2023-06-11T13:24:50.837Z,28.05
2023-06-11T13:27:17.633Z,27.66
2023-06-11T13:29:44.488Z,27.24
2023-06-11T13:32:11.215Z,27.39
2023-06-11T13:34:38.395Z,27.49
2023-06-11T13:37:05.579Z,28.03
2023-06-11T13:39:33.891Z,28.20
2023-06-11T13:42:00.947Z,27.67
2023-06-11T13:44:27.809Z,27.97
2023-06-11T13:46:54.862Z,27.49
2023-06-11T13:49:21.996Z,26.85
2023-06-11T13:51:48.872Z,26.30
2023-06-11T13:54:15.578Z,27.59
2023-06-11T13:56:42.421Z,28.55
2023-06-11T13:59:09.076Z,28.71
2023-06-11T14:01:36.173Z,27.69
2023-06-11T14:04:03.064Z,27.40
2023-06-11T14:06:33.454Z,26.96
2023-06-11T14:09:00.659Z,27.06
2023-06-11T14:11:27.249Z,26.93
2023-06-11T14:13:54.033Z,26.81
2023-06-11T14:16:20.857Z,26.68
2023-06-11T14:18:47.578Z,26.77
2023-06-11T14:21:14.204Z,26.95
2023-06-11T14:23:41.051Z,26.48
2023-06-11T14:26:07.734Z,26.26
2023-06-11T14:28:34.443Z,26.21
2023-06-11T14:31:01.276Z,26.83
2023-06-11T14:33:27.967Z,26.52
2023-06-11T14:35:54.819Z,26.63
2023-06-11T14:38:21.650Z,26.65
2023-06-11T14:40:48.591Z,27.08
2023-06-11T14:43:15.315Z,26.62
2023-06-11T14:45:42.109Z,27.64
2023-06-11T14:48:08.941Z,26.73
2023-06-11T14:50:35.941Z,26.13
2023-06-11T14:53:02.674Z,27.35
2023-06-11T14:55:29.449Z,27.36
2023-06-11T14:57:56.230Z,26.70
2023-06-11T15:00:23.016Z,26.19
2023-06-11T15:02:49.826Z,26.81
2023-06-11T15:05:17.086Z,27.69
2023-06-11T15:07:43.826Z,28.41
2023-06-11T15:10:11.750Z,27.64
2023-06-11T15:12:38.852Z,26.94
2023-06-11T15:15:06.405Z,25.72
2023-06-11T15:17:37.139Z,25.84
2023-06-11T15:20:08.033Z,25.68
2023-06-11T15:22:40.138Z,25.84
2023-06-11T15:25:10.171Z,26.02
2023-06-11T15:27:36.968Z,25.40
2023-06-11T15:30:05.002Z,25.42
2023-06-11T15:32:31.985Z,24.99
2023-06-11T15:34:58.765Z,25.37
2023-06-11T15:37:25.553Z,27.05
2023-06-11T15:39:52.951Z,26.92
2023-06-11T15:42:20.181Z,27.98
2023-06-11T15:44:49.659Z,27.51
2023-06-11T15:47:17.056Z,26.77
2023-06-11T15:49:43.857Z,25.93
2023-06-11T15:52:10.666Z,25.85
2023-06-11T15:54:37.600Z,25.29
2023-06-11T15:57:05.014Z,25.01
2023-06-11T15:59:32.644Z,24.80
2023-06-11T16:01:59.724Z,24.80
2023-06-11T16:04:26.949Z,25.36
2023-06-11T16:06:53.967Z,25.23
2023-06-11T16:09:20.694Z,24.98
2023-06-11T16:11:47.341Z,24.63
2023-06-11T16:14:16.117Z,24.48
2023-06-11T16:16:43.529Z,23.95
2023-06-11T16:19:10.427Z,24.49
2023-06-11T16:21:38.129Z,24.26
2023-06-11T16:24:06.085Z,24.41
2023-06-11T16:26:33.117Z,24.39
2023-06-11T16:29:00.498Z,24.20
2023-06-11T16:31:27.253Z,23.75
2023-06-11T16:33:59.052Z,23.83
2023-06-11T16:36:27.373Z,23.83
2023-06-11T16:38:54.135Z,24.20
2023-06-11T16:41:22.030Z,24.25
2023-06-11T16:43:52.397Z,24.42
2023-06-11T16:46:20.291Z,24.41
2023-06-11T16:48:47.628Z,24.34
2023-06-11T16:51:14.724Z,24.07
2023-06-11T16:53:41.604Z,23.96
2023-06-11T16:56:08.483Z,24.00
2023-06-11T16:58:35.074Z,23.80
2023-06-11T17:01:01.904Z,23.77
2023-06-11T17:03:28.540Z,23.90
2023-06-11T17:05:55.370Z,23.78
2023-06-11T17:08:22.016Z,24.11
2023-06-11T17:10:48.814Z,24.37
2023-06-11T17:13:15.464Z,24.13
2023-06-11T17:15:42.142Z,24.76
2023-06-11T17:18:08.850Z,23.95
2023-06-11T17:20:36.691Z,23.98
2023-06-11T17:23:03.765Z,24.03
2023-06-11T17:25:30.741Z,24.51
2023-06-11T17:27:57.394Z,23.99
2023-06-11T17:30:24.236Z,24.38
2023-06-11T17:32:50.933Z,24.77
2023-06-11T17:35:17.734Z,24.45
2023-06-11T17:37:45.843Z,24.53
2023-06-11T17:40:16.554Z,24.18
2023-06-11T17:42:44.964Z,24.67
2023-06-11T17:45:12.339Z,24.51
2023-06-11T17:47:39.185Z,24.62
2023-06-11T17:50:06.662Z,24.65
2023-06-11T17:52:33.757Z,24.53
2023-06-11T17:55:00.520Z,24.82
2023-06-11T17:57:27.409Z,24.57
2023-06-11T17:59:54.055Z,24.63
2023-06-11T18:02:20.864Z,24.63
2023-06-11T18:04:47.573Z,24.67
2023-06-11T18:07:14.259Z,24.76
2023-06-11T18:09:40.982Z,24.91
2023-06-11T18:12:08.788Z,24.84
2023-06-11T18:14:35.580Z,25.21
2023-06-11T18:17:02.410Z,25.22
2023-06-11T18:19:29.130Z,25.30
2023-06-11T18:21:55.973Z,25.26
2023-06-11T18:24:23.471Z,25.30
2023-06-11T18:26:50.300Z,26.01
2023-06-11T18:29:17.060Z,26.88
2023-06-11T18:31:43.856Z,27.05
2023-06-11T18:34:10.615Z,27.21
2023-06-11T18:36:37.377Z,27.51
2023-06-11T18:39:04.248Z,28.09
2023-06-11T18:41:31.322Z,27.98
2023-06-11T18:43:58.049Z,28.13
2023-06-11T18:46:25.938Z,28.71
2023-06-11T18:48:52.875Z,28.84
2023-06-11T18:51:19.870Z,28.68
2023-06-11T18:53:47.342Z,28.76
2023-06-11T18:56:14.214Z,28.94
2023-06-11T18:58:41.097Z,29.15
2023-06-11T19:01:07.878Z,29.50
2023-06-11T19:03:38.680Z,30.26
2023-06-11T19:06:06.814Z,29.83
2023-06-11T19:08:33.541Z,29.95
2023-06-11T19:11:00.341Z,29.72
2023-06-11T19:13:27.028Z,30.34
2023-06-11T19:15:55.075Z,29.98
2023-06-11T19:18:22.081Z,29.99
2023-06-11T19:20:48.906Z,30.38
2023-06-11T19:23:15.823Z,29.98
2023-06-11T19:25:42.514Z,30.11
2023-06-11T19:28:09.273Z,30.68
2023-06-11T19:30:35.985Z,30.83
2023-06-11T19:33:02.854Z,30.66
2023-06-11T19:35:29.878Z,31.10
2023-06-11T19:37:56.662Z,31.04
2023-06-11T19:40:23.399Z,31.15
2023-06-11T19:42:50.104Z,31.70
2023-06-11T19:45:19.474Z,34.42
2023-06-11T19:47:46.776Z,33.95
2023-06-11T19:50:14.025Z,31.86
2023-06-11T19:52:40.954Z,31.99
2023-06-11T19:55:08.089Z,31.96
2023-06-11T19:57:34.859Z,33.32
2023-06-11T20:00:01.823Z,32.52
2023-06-11T20:02:39.239Z,32.60
2023-06-11T20:05:06.633Z,33.21
2023-06-11T20:07:33.453Z,35.10
2023-06-11T20:10:00.299Z,34.86
2023-06-11T20:12:27.036Z,33.08
2023-06-11T20:14:53.768Z,32.95
2023-06-11T20:17:20.664Z,34.14
2023-06-11T20:19:49.277Z,33.69
2023-06-11T20:22:16.038Z,33.29
2023-06-11T20:24:42.870Z,34.78
2023-06-11T20:27:09.554Z,32.51
2023-06-11T20:29:36.841Z,33.64
2023-06-11T20:32:03.865Z,34.13
2023-06-11T20:34:30.612Z,33.07
2023-06-11T20:36:57.410Z,33.11
2023-06-11T20:39:24.110Z,33.11
2023-06-11T20:41:50.844Z,33.24
2023-06-11T20:44:17.512Z,33.16
2023-06-11T20:46:44.333Z,34.14
2023-06-11T20:49:11.115Z,33.49
2023-06-11T20:51:39.277Z,33.03
2023-06-11T20:54:06.186Z,34.49
2023-06-11T20:56:32.850Z,33.74
2023-06-11T20:58:59.592Z,33.48
2023-06-11T21:01:26.474Z,33.57
2023-06-11T21:03:53.216Z,33.74
2023-06-11T21:06:19.933Z,33.37
2023-06-11T21:08:46.629Z,34.22
2023-06-11T21:11:14.074Z,34.09
2023-06-11T21:13:40.978Z,34.15
2023-06-11T21:16:07.704Z,34.76
2023-06-11T21:18:34.535Z,34.22
2023-06-11T21:21:01.378Z,34.61
2023-06-11T21:23:28.137Z,34.22
2023-06-11T21:25:54.942Z,34.94
2023-06-11T21:28:21.720Z,35.36
2023-06-11T21:30:48.588Z,35.42
2023-06-11T21:33:15.389Z,35.18
2023-06-11T21:35:42.215Z,35.42
2023-06-11T21:38:08.992Z,36.61
2023-06-11T21:40:35.785Z,35.29
2023-06-11T21:43:02.501Z,35.35
2023-06-11T21:45:29.834Z,35.58
2023-06-11T21:47:56.545Z,36.42
2023-06-11T21:50:23.452Z,36.51
2023-06-11T21:52:50.794Z,37.04
2023-06-11T21:55:18.057Z,38.11
2023-06-11T21:57:45.032Z,36.77
2023-06-11T22:00:14.712Z,37.56
2023-06-11T22:02:42.390Z,37.80
2023-06-11T22:05:10.087Z,36.86
2023-06-11T22:07:37.207Z,38.45
2023-06-11T22:10:05.223Z,37.35
2023-06-11T22:12:41.274Z,37.88
2023-06-11T22:15:09.092Z,38.86
2023-06-11T22:17:36.018Z,37.48
2023-06-11T22:20:08.225Z,38.01
2023-06-11T22:22:43.825Z,40.25
2023-06-11T22:25:12.023Z,41.18
2023-06-11T22:27:43.257Z,39.45
2023-06-11T22:30:11.872Z,38.57
2023-06-11T22:32:38.983Z,40.68
2023-06-11T22:35:06.099Z,40.26
2023-06-11T22:37:35.119Z,39.59
2023-06-11T22:40:02.631Z,39.90
2023-06-11T22:42:29.563Z,40.09
2023-06-11T22:44:56.305Z,40.34
2023-06-11T22:47:23.030Z,40.36
2023-06-11T22:49:49.771Z,41.09
2023-06-11T22:52:19.276Z,40.44
2023-06-11T22:54:46.832Z,40.73
2023-06-11T22:57:13.536Z,40.68
2023-06-11T22:59:40.664Z,40.97
2023-06-11T23:02:07.909Z,41.00
2023-06-11T23:04:34.655Z,41.25
2023-06-11T23:07:03.521Z,41.22
2023-06-11T23:09:30.941Z,42.27
2023-06-11T23:11:57.905Z,42.68
2023-06-11T23:14:24.729Z,42.06
2023-06-11T23:16:51.606Z,42.24
2023-06-11T23:19:19.519Z,42.11
2023-06-11T23:21:46.263Z,42.22
2023-06-11T23:24:13.917Z,43.42
2023-06-11T23:26:45.114Z,42.54
2023-06-11T23:29:16.541Z,43.85
2023-06-11T23:31:43.670Z,42.52
2023-06-11T23:34:11.284Z,42.39
2023-06-11T23:36:41.000Z,42.58
2023-06-11T23:39:09.620Z,42.70
2023-06-11T23:41:37.408Z,43.01
2023-06-11T23:44:04.348Z,43.33
2023-06-11T23:46:32.306Z,43.07
2023-06-11T23:48:59.065Z,43.16
2023-06-11T23:51:25.922Z,43.16
2023-06-11T23:53:53.657Z,43.10
2023-06-11T23:56:20.565Z,43.06
2023-06-11T23:58:47.273Z,43.08
